createdAt,value
2022-11-07T00:00:49.893Z,99887.00
2022-11-07T00:03:20.420Z,99896.00
2022-11-07T00:05:49.382Z,99885.00
2022-11-07T00:08:18.386Z,99878.00
2022-11-07T00:10:47.414Z,99882.00
2022-11-07T00:13:24.058Z,99884.00
2022-11-07T00:15:53.410Z,99867.00
2022-11-07T00:18:22.130Z,99868.00
2022-11-07T00:20:50.816Z,99881.00
2022-11-07T00:23:19.649Z,99890.00
2022-11-07T00:25:48.312Z,99885.00
2022-11-07T00:28:18.918Z,99891.00
2022-11-07T00:30:47.864Z,99886.00
2022-11-07T00:33:16.771Z,99883.00
2022-11-07T00:35:45.720Z,99897.00
2022-11-07T00:38:14.684Z,99906.00
2022-11-07T00:40:47.087Z,99894.00
2022-11-07T00:43:17.307Z,99898.00
2022-11-07T00:45:45.932Z,99893.00
2022-11-07T00:48:14.648Z,99901.00
2022-11-07T00:50:43.472Z,99895.00
2022-11-07T00:53:12.629Z,99889.00
2022-11-07T00:55:41.502Z,99885.00
2022-11-07T00:58:13.828Z,99884.00
2022-11-07T01:00:44.106Z,99893.00
2022-11-07T01:03:30.348Z,99884.00
2022-11-07T01:05:59.904Z,99893.00
2022-11-07T01:08:28.742Z,99896.00
2022-11-07T01:10:57.278Z,99899.00
2022-11-07T01:13:26.600Z,99891.00
2022-11-07T01:15:57.559Z,99885.00
2022-11-07T01:18:26.982Z,99894.00
2022-11-07T01:20:56.034Z,99884.00
2022-11-07T01:23:24.925Z,99874.00
2022-11-07T01:25:53.496Z,99864.00
2022-11-07T01:28:22.096Z,99879.00
2022-11-07T01:30:50.834Z,99886.00
2022-11-07T01:33:21.097Z,99893.00
2022-11-07T01:35:50.033Z,99891.00
2022-11-07T01:38:18.717Z,99901.00
2022-11-07T01:41:04.717Z,99902.00
2022-11-07T01:43:44.977Z,99910.00
2022-11-07T01:46:13.748Z,99905.00
2022-11-07T01:48:48.054Z,99917.00
2022-11-07T01:51:17.859Z,99911.00
2022-11-07T01:53:47.545Z,99916.00
2022-11-07T01:56:18.939Z,99900.00
2022-11-07T01:58:48.616Z,99903.00
2022-11-07T02:01:18.059Z,99901.00
2022-11-07T02:03:48.750Z,99892.00
2022-11-07T02:06:24.450Z,99898.00
2022-11-07T02:08:54.424Z,99882.00
2022-11-07T02:11:23.823Z,99888.00
2022-11-07T02:13:52.684Z,99892.00
2022-11-07T02:16:21.246Z,99878.00
2022-11-07T02:18:51.438Z,99876.00
2022-11-07T02:21:31.162Z,99886.00
2022-11-07T02:24:07.608Z,99886.00
2022-11-07T02:26:39.537Z,99883.00
2022-11-07T02:29:11.298Z,99880.00
2022-11-07T02:31:39.902Z,99886.00
2022-11-07T02:34:08.629Z,99883.00
2022-11-07T02:36:37.335Z,99886.00
2022-11-07T02:39:06.247Z,99894.00
2022-11-07T02:41:37.685Z,99895.00
2022-11-07T02:44:10.813Z,99891.00
2022-11-07T02:46:40.650Z,99886.00
2022-11-07T02:49:09.191Z,99874.00
2022-11-07T02:51:37.921Z,99880.00
2022-11-07T02:54:06.925Z,99883.00
2022-11-07T02:56:37.146Z,99880.00
2022-11-07T02:59:05.921Z,99880.00
2022-11-07T03:01:34.709Z,99885.00
2022-11-07T03:04:03.359Z,99886.00
2022-11-07T03:06:31.862Z,99889.00
2022-11-07T03:09:00.522Z,99905.00
2022-11-07T03:11:31.945Z,99904.00
2022-11-07T03:14:02.272Z,99897.00
2022-11-07T03:16:31.205Z,99902.00
2022-11-07T03:18:59.746Z,99913.00
2022-11-07T03:21:28.262Z,99919.00
2022-11-07T03:23:56.989Z,99921.00
2022-11-07T03:26:25.655Z,99929.00
2022-11-07T03:28:54.458Z,99931.00
2022-11-07T03:31:24.609Z,99937.00
2022-11-07T03:33:53.258Z,99942.00
2022-11-07T03:36:21.710Z,99944.00
2022-11-07T03:38:50.226Z,99953.00
2022-11-07T03:41:18.717Z,99945.00
2022-11-07T03:43:47.431Z,99949.00
2022-11-07T03:46:17.820Z,99958.00
2022-11-07T03:48:47.973Z,99960.00
2022-11-07T03:51:16.886Z,99954.00
2022-11-07T03:53:45.310Z,99962.00
2022-11-07T03:56:14.823Z,99964.00
2022-11-07T03:58:43.254Z,99968.00
2022-11-07T04:01:16.711Z,99978.00
2022-11-07T04:03:52.676Z,99976.00
2022-11-07T04:06:24.055Z,99976.00
2022-11-07T04:08:52.551Z,99975.00
2022-11-07T04:11:34.983Z,99973.00
2022-11-07T04:14:26.133Z,99986.00
2022-11-07T04:17:12.072Z,99993.00
2022-11-07T04:19:41.949Z,99992.00
2022-11-07T04:22:10.454Z,99997.00
2022-11-07T04:24:44.457Z,99988.00
2022-11-07T04:27:32.918Z,99986.00
2022-11-07T04:30:19.512Z,99986.00
2022-11-07T04:32:51.158Z,99996.00
2022-11-07T04:35:22.307Z,99998.00
2022-11-07T04:37:51.372Z,99998.00
2022-11-07T04:40:20.710Z,100000.00
2022-11-07T04:42:50.068Z,99990.00
2022-11-07T04:45:19.424Z,100001.00
2022-11-07T04:47:48.485Z,99999.00
2022-11-07T04:50:19.818Z,100000.00
2022-11-07T04:52:50.627Z,100007.00
2022-11-07T04:55:22.121Z,100012.00
2022-11-07T04:57:51.262Z,100004.00
2022-11-07T05:00:20.923Z,100011.00
2022-11-07T05:02:49.905Z,100015.00
2022-11-07T05:05:19.782Z,100006.00
2022-11-07T05:07:50.396Z,100003.00
2022-11-07T05:10:24.443Z,100004.00
2022-11-07T05:12:53.511Z,100006.00
2022-11-07T05:15:22.376Z,100000.00
2022-11-07T05:17:51.025Z,100023.00
2022-11-07T05:20:29.542Z,100033.00
2022-11-07T05:23:18.439Z,100023.00
2022-11-07T05:25:49.590Z,100031.00
2022-11-07T05:28:28.001Z,100021.00
2022-11-07T05:31:00.997Z,100032.00
2022-11-07T05:33:30.002Z,100017.00
2022-11-07T05:35:58.466Z,100035.00
2022-11-07T05:38:28.334Z,100035.00
2022-11-07T05:40:57.096Z,100043.00
2022-11-07T05:43:25.609Z,100035.00
2022-11-07T05:45:54.069Z,100046.00
2022-11-07T05:48:22.879Z,100037.00
2022-11-07T05:50:51.683Z,100032.00
2022-11-07T05:53:21.509Z,100033.00
2022-11-07T05:55:52.842Z,100041.00
2022-11-07T05:58:22.617Z,100054.00
2022-11-07T06:00:52.210Z,100049.00
2022-11-07T06:03:21.372Z,100057.00
2022-11-07T06:05:50.080Z,100050.00
2022-11-07T06:08:18.596Z,100055.00
2022-11-07T06:10:47.143Z,100059.00
2022-11-07T06:13:18.716Z,100054.00
2022-11-07T06:15:47.723Z,100061.00
2022-11-07T06:18:18.144Z,100055.00
2022-11-07T06:20:46.925Z,100059.00
2022-11-07T06:23:16.375Z,100060.00
2022-11-07T06:25:45.422Z,100065.00
2022-11-07T06:28:16.251Z,100082.00
2022-11-07T06:30:46.282Z,100076.00
2022-11-07T06:33:17.536Z,100078.00
2022-11-07T06:35:47.074Z,100077.00
2022-11-07T06:38:16.340Z,100081.00
2022-11-07T06:40:45.456Z,100076.00
2022-11-07T06:43:18.197Z,100090.00
2022-11-07T06:45:47.678Z,100095.00
2022-11-07T06:48:16.261Z,100108.00
2022-11-07T06:50:45.119Z,100101.00
2022-11-07T06:53:15.673Z,100093.00
2022-11-07T06:55:44.554Z,100095.00
2022-11-07T06:58:13.128Z,100096.00
2022-11-07T07:00:43.116Z,100091.00
2022-11-07T07:03:12.953Z,100092.00
2022-11-07T07:05:42.003Z,100095.00
2022-11-07T07:08:11.306Z,100101.00
2022-11-07T07:10:43.444Z,100103.00
2022-11-07T07:13:12.645Z,100116.00
2022-11-07T07:15:50.831Z,100122.00
2022-11-07T07:18:20.322Z,100127.00
2022-11-07T07:20:49.236Z,100121.00
2022-11-07T07:23:18.664Z,100121.00
2022-11-07T07:25:47.816Z,100122.00
2022-11-07T07:28:16.318Z,100123.00
2022-11-07T07:30:51.645Z,100124.00
2022-11-07T07:33:20.720Z,100133.00
2022-11-07T07:35:49.616Z,100133.00
2022-11-07T07:38:18.545Z,100135.00
2022-11-07T07:40:47.221Z,100138.00
2022-11-07T07:43:16.183Z,100134.00
2022-11-07T07:45:50.433Z,100138.00
2022-11-07T07:48:19.226Z,100127.00
2022-11-07T07:50:50.827Z,100121.00
2022-11-07T07:53:19.842Z,100118.00
2022-11-07T07:55:48.384Z,100116.00
2022-11-07T07:58:17.275Z,100126.00
2022-11-07T08:00:47.122Z,100126.00
2022-11-07T08:03:15.863Z,100122.00
2022-11-07T08:05:44.521Z,100130.00
2022-11-07T08:08:12.997Z,100118.00
2022-11-07T08:10:43.162Z,100126.00
2022-11-07T08:13:12.250Z,100130.00
2022-11-07T08:15:40.963Z,100125.00
2022-11-07T08:18:11.076Z,100130.00
2022-11-07T08:20:39.856Z,100143.00
2022-11-07T08:23:16.047Z,100146.00
2022-11-07T08:25:50.113Z,100143.00
2022-11-07T08:28:18.845Z,100127.00
2022-11-07T08:30:47.623Z,100144.00
2022-11-07T08:33:17.893Z,100147.00
2022-11-07T08:35:47.010Z,100154.00
2022-11-07T08:38:15.818Z,100143.00
2022-11-07T08:40:44.417Z,100140.00
2022-11-07T08:43:13.037Z,100138.00
2022-11-07T08:45:41.814Z,100142.00
2022-11-07T08:48:10.311Z,100142.00
2022-11-07T08:50:40.382Z,100132.00
2022-11-07T08:53:09.366Z,100143.00
2022-11-07T08:55:38.407Z,100144.00
2022-11-07T08:58:09.047Z,100145.00
2022-11-07T09:00:38.104Z,100152.00
2022-11-07T09:03:38.719Z,100140.00
2022-11-07T09:05:58.938Z,100145.00
2022-11-07T09:08:28.502Z,100138.00
2022-11-07T09:10:57.064Z,100141.00
2022-11-07T09:13:25.761Z,100131.00
2022-11-07T09:15:59.640Z,100133.00
2022-11-07T09:18:28.979Z,100122.00
2022-11-07T09:20:59.334Z,100141.00
2022-11-07T09:23:33.930Z,100138.00
2022-11-07T09:26:03.040Z,100135.00
2022-11-07T09:28:31.575Z,100143.00
2022-11-07T09:31:01.063Z,100128.00
2022-11-07T09:33:29.839Z,100136.00
2022-11-07T09:36:02.593Z,100139.00
2022-11-07T09:38:31.582Z,100139.00
2022-11-07T09:41:06.432Z,100143.00
2022-11-07T09:43:48.762Z,100152.00
2022-11-07T09:46:29.374Z,100159.00
2022-11-07T09:49:02.978Z,100162.00
2022-11-07T09:51:51.194Z,100156.00
2022-11-07T09:54:23.623Z,100161.00
2022-11-07T09:56:53.024Z,100156.00
2022-11-07T09:59:25.825Z,100158.00
2022-11-07T10:01:54.389Z,100158.00
2022-11-07T10:04:26.524Z,100160.00
2022-11-07T10:07:01.585Z,100155.00
2022-11-07T10:09:39.688Z,100153.00
2022-11-07T10:12:18.535Z,100150.00
2022-11-07T10:14:54.983Z,100146.00
2022-11-07T10:17:30.420Z,100142.00
2022-11-07T10:20:14.475Z,100153.00
2022-11-07T10:22:59.565Z,100148.00
2022-11-07T10:25:35.136Z,100155.00
2022-11-07T10:28:16.325Z,100150.00
2022-11-07T10:30:48.398Z,100158.00
2022-11-07T10:33:35.625Z,100155.00
2022-11-07T10:36:10.633Z,100154.00
2022-11-07T10:38:43.429Z,100168.00
2022-11-07T10:41:23.002Z,100160.00
2022-11-07T10:43:56.031Z,100162.00
2022-11-07T10:46:28.250Z,100166.00
2022-11-07T10:48:58.820Z,100157.00
2022-11-07T10:51:38.417Z,100147.00
2022-11-07T10:54:08.888Z,100147.00
2022-11-07T10:56:47.512Z,100145.00
2022-11-07T10:59:25.117Z,100147.00
2022-11-07T11:01:55.446Z,100150.00
2022-11-07T11:04:25.243Z,100140.00
2022-11-07T11:07:02.064Z,100139.00
2022-11-07T11:09:33.503Z,100147.00
2022-11-07T11:12:06.872Z,100145.00
2022-11-07T11:14:35.356Z,100154.00
2022-11-07T11:17:04.408Z,100143.00
2022-11-07T11:19:41.152Z,100148.00
2022-11-07T11:22:17.720Z,100137.00
2022-11-07T11:24:47.531Z,100140.00
2022-11-07T11:27:21.403Z,100135.00
2022-11-07T11:29:56.619Z,100132.00
2022-11-07T11:32:30.042Z,100131.00
2022-11-07T11:35:09.190Z,100133.00
2022-11-07T11:37:42.985Z,100134.00
2022-11-07T11:40:18.656Z,100130.00
2022-11-07T11:42:52.296Z,100141.00
2022-11-07T11:45:27.956Z,100121.00
2022-11-07T11:48:03.134Z,100132.00
2022-11-07T11:50:39.952Z,100128.00
2022-11-07T11:53:14.561Z,100138.00
2022-11-07T11:55:52.331Z,100130.00
2022-11-07T11:58:37.672Z,100139.00
2022-11-07T12:01:15.398Z,100134.00
2022-11-07T12:04:10.065Z,100147.00
2022-11-07T12:06:40.764Z,100140.00
2022-11-07T12:09:20.813Z,100143.00
2022-11-07T12:12:11.200Z,100130.00
2022-11-07T12:14:57.812Z,100128.00
2022-11-07T12:17:32.746Z,100125.00
2022-11-07T12:20:09.157Z,100128.00
2022-11-07T12:22:48.721Z,100135.00
2022-11-07T12:25:24.928Z,100138.00
2022-11-07T12:28:04.415Z,100125.00
2022-11-07T12:30:40.628Z,100123.00
2022-11-07T12:33:20.033Z,100136.00
2022-11-07T12:35:55.347Z,100119.00
2022-11-07T12:38:49.828Z,100127.00
2022-11-07T12:41:30.137Z,100125.00
2022-11-07T12:44:18.459Z,100131.00
2022-11-07T12:46:52.035Z,100126.00
2022-11-07T12:49:41.682Z,100129.00
2022-11-07T12:52:30.572Z,100133.00
2022-11-07T12:55:02.424Z,100125.00
2022-11-07T12:57:34.093Z,100129.00
2022-11-07T13:00:09.606Z,100122.00
2022-11-07T13:02:55.350Z,100125.00
2022-11-07T13:05:42.262Z,100126.00
2022-11-07T13:08:16.791Z,100132.00
2022-11-07T13:10:55.143Z,100127.00
2022-11-07T13:13:28.287Z,100126.00
2022-11-07T13:16:15.571Z,100126.00
2022-11-07T13:18:44.482Z,100129.00
2022-11-07T13:21:12.946Z,100125.00
2022-11-07T13:23:41.548Z,100138.00
2022-11-07T13:26:44.660Z,100144.00
2022-11-07T13:29:00.174Z,100146.00
2022-11-07T13:31:36.151Z,100151.00
2022-11-07T13:34:13.040Z,100147.00
2022-11-07T13:36:41.675Z,100153.00
2022-11-07T13:39:14.281Z,100155.00
2022-11-07T13:41:45.276Z,100150.00
2022-11-07T13:44:22.988Z,100154.00
2022-11-07T13:46:55.581Z,100155.00
2022-11-07T13:49:28.673Z,100158.00
2022-11-07T13:52:02.265Z,100154.00
2022-11-07T13:54:35.663Z,100152.00
2022-11-07T13:57:09.950Z,100155.00
2022-11-07T13:59:45.259Z,100157.00
2022-11-07T14:02:22.765Z,100154.00
2022-11-07T14:05:14.890Z,100165.00
2022-11-07T14:07:43.103Z,100168.00
2022-11-07T14:10:27.162Z,100166.00
2022-11-07T14:13:03.100Z,100171.00
2022-11-07T14:15:32.549Z,100167.00
2022-11-07T14:18:02.577Z,100165.00
2022-11-07T14:20:31.075Z,100165.00
2022-11-07T14:23:01.705Z,100162.00
2022-11-07T14:25:32.021Z,100176.00
2022-11-07T14:28:00.940Z,100174.00
2022-11-07T14:30:31.765Z,100166.00
2022-11-07T14:33:04.818Z,100168.00
2022-11-07T14:35:35.182Z,100174.00
2022-11-07T14:38:12.091Z,100170.00
2022-11-07T14:40:42.147Z,100174.00
2022-11-07T14:43:14.961Z,100169.00
2022-11-07T14:46:11.241Z,100162.00
2022-11-07T14:48:36.967Z,100167.00
2022-11-07T14:51:06.409Z,100169.00
2022-11-07T14:53:40.445Z,100170.00
2022-11-07T14:56:14.237Z,100166.00
2022-11-07T14:58:42.785Z,100165.00
2022-11-07T15:01:15.600Z,100166.00
2022-11-07T15:03:56.083Z,100164.00
2022-11-07T15:06:30.179Z,100158.00
2022-11-07T15:09:00.865Z,100165.00
2022-11-07T15:11:33.139Z,100157.00
2022-11-07T15:14:03.989Z,100158.00
2022-11-07T15:16:39.855Z,100156.00
2022-11-07T15:19:16.908Z,100156.00
2022-11-07T15:21:53.968Z,100153.00
2022-11-07T15:24:44.078Z,100161.00
2022-11-07T15:27:21.342Z,100159.00
2022-11-07T15:29:55.054Z,100150.00
2022-11-07T15:32:25.299Z,100150.00
2022-11-07T15:35:37.955Z,100144.00
2022-11-07T15:37:54.060Z,100152.00
2022-11-07T15:40:24.044Z,100154.00
2022-11-07T15:42:52.640Z,100154.00
2022-11-07T15:45:22.262Z,100152.00
2022-11-07T15:47:51.899Z,100145.00
2022-11-07T15:50:26.213Z,100148.00
2022-11-07T15:52:55.738Z,100155.00
2022-11-07T15:55:25.500Z,100158.00
2022-11-07T15:57:55.353Z,100151.00
2022-11-07T16:00:26.008Z,100158.00
2022-11-07T16:02:54.787Z,100147.00
2022-11-07T16:05:24.716Z,100153.00
2022-11-07T16:07:53.306Z,100149.00
2022-11-07T16:10:25.075Z,100144.00
2022-11-07T16:12:54.552Z,100154.00
2022-11-07T16:15:26.178Z,100160.00
2022-11-07T16:17:54.770Z,100159.00
2022-11-07T16:20:25.418Z,100157.00
2022-11-07T16:22:53.917Z,100161.00
2022-11-07T16:25:25.799Z,100158.00
2022-11-07T16:27:56.264Z,100150.00
2022-11-07T16:30:24.921Z,100158.00
2022-11-07T16:32:53.479Z,100158.00
2022-11-07T16:35:23.613Z,100157.00
2022-11-07T16:37:52.196Z,100168.00
2022-11-07T16:40:21.225Z,100154.00
2022-11-07T16:42:49.750Z,100164.00
2022-11-07T16:45:20.576Z,100170.00
2022-11-07T16:47:49.328Z,100176.00
2022-11-07T16:50:18.701Z,100169.00
2022-11-07T16:52:48.522Z,100177.00
2022-11-07T16:55:17.815Z,100175.00
2022-11-07T16:57:46.850Z,100166.00
2022-11-07T17:00:21.184Z,100187.00
2022-11-07T17:02:50.157Z,100179.00
2022-11-07T17:05:18.782Z,100179.00
2022-11-07T17:07:50.327Z,100188.00
2022-11-07T17:10:19.436Z,100183.00
2022-11-07T17:12:47.917Z,100190.00
2022-11-07T17:15:16.453Z,100180.00
2022-11-07T17:17:44.974Z,100190.00
2022-11-07T17:20:49.809Z,100186.00
2022-11-07T17:23:12.329Z,100193.00
2022-11-07T17:25:41.416Z,100183.00
2022-11-07T17:28:10.538Z,100194.00
2022-11-07T17:30:39.008Z,100187.00
2022-11-07T17:33:07.573Z,100176.00
2022-11-07T17:35:37.138Z,100180.00
2022-11-07T17:38:06.487Z,100199.00
2022-11-07T17:40:36.506Z,100194.00
2022-11-07T17:43:05.453Z,100187.00
2022-11-07T17:45:33.990Z,100187.00
2022-11-07T17:48:02.562Z,100191.00
2022-11-07T17:50:31.176Z,100194.00
2022-11-07T17:53:00.203Z,100189.00
2022-11-07T17:55:28.775Z,100202.00
2022-11-07T17:57:58.683Z,100206.00
2022-11-07T18:00:28.249Z,100202.00
2022-11-07T18:02:56.833Z,100205.00
2022-11-07T18:05:30.301Z,100207.00
2022-11-07T18:08:02.542Z,100210.00
2022-11-07T18:10:31.082Z,100216.00
2022-11-07T18:13:00.995Z,100218.00
2022-11-07T18:15:29.616Z,100212.00
2022-11-07T18:17:58.104Z,100211.00
2022-11-07T18:20:27.720Z,100212.00
2022-11-07T18:22:56.219Z,100202.00
2022-11-07T18:25:24.742Z,100197.00
2022-11-07T18:27:53.277Z,100202.00
2022-11-07T18:30:23.204Z,100207.00
2022-11-07T18:32:52.205Z,100198.00
2022-11-07T18:35:20.687Z,100196.00
2022-11-07T18:37:49.108Z,100197.00
2022-11-07T18:40:17.767Z,100205.00
2022-11-07T18:42:46.897Z,100204.00
2022-11-07T18:45:15.742Z,100198.00
2022-11-07T18:47:45.623Z,100205.00
2022-11-07T18:50:14.123Z,100204.00
2022-11-07T18:52:42.649Z,100202.00
2022-11-07T18:55:12.083Z,100205.00
2022-11-07T18:57:42.354Z,100204.00
2022-11-07T19:00:13.697Z,100207.00
2022-11-07T19:02:44.538Z,100209.00
2022-11-07T19:05:13.282Z,100206.00
2022-11-07T19:07:44.831Z,100208.00
2022-11-07T19:10:13.789Z,100207.00
2022-11-07T19:12:43.144Z,100206.00
2022-11-07T19:15:12.532Z,100216.00
2022-11-07T19:17:41.170Z,100203.00
2022-11-07T19:20:12.328Z,100205.00
2022-11-07T19:22:40.805Z,100195.00
2022-11-07T19:25:10.151Z,100201.00
2022-11-07T19:27:38.673Z,100203.00
2022-11-07T19:30:09.619Z,100197.00
2022-11-07T19:32:38.493Z,100201.00
2022-11-07T19:35:07.737Z,100202.00
2022-11-07T19:37:38.460Z,100196.00
2022-11-07T19:40:08.472Z,100207.00
2022-11-07T19:42:37.005Z,100209.00
2022-11-07T19:45:06.168Z,100207.00
2022-11-07T19:47:34.916Z,100212.00
2022-11-07T19:50:03.398Z,100207.00
2022-11-07T19:52:31.878Z,100211.00
2022-11-07T19:55:01.753Z,100207.00
2022-11-07T19:57:30.296Z,100212.00
2022-11-07T19:59:58.908Z,100213.00
2022-11-07T20:02:40.094Z,100219.00
2022-11-07T20:05:12.405Z,100212.00
2022-11-07T20:07:41.403Z,100209.00
2022-11-07T20:10:11.482Z,100217.00
2022-11-07T20:12:39.931Z,100225.00
2022-11-07T20:15:09.717Z,100223.00
2022-11-07T20:17:38.217Z,100226.00
2022-11-07T20:20:13.184Z,100226.00
2022-11-07T20:22:46.397Z,100226.00
2022-11-07T20:25:17.029Z,100219.00
2022-11-07T20:27:45.530Z,100225.00
2022-11-07T20:30:14.795Z,100237.00
2022-11-07T20:32:46.416Z,100233.00
2022-11-07T20:35:14.980Z,100237.00
2022-11-07T20:37:43.454Z,100240.00
2022-11-07T20:40:14.497Z,100240.00
2022-11-07T20:42:44.389Z,100242.00
2022-11-07T20:45:13.342Z,100240.00
2022-11-07T20:47:42.244Z,100249.00
2022-11-07T20:50:11.057Z,100252.00
2022-11-07T20:52:39.849Z,100238.00
2022-11-07T20:55:09.190Z,100250.00
2022-11-07T20:57:37.679Z,100238.00
2022-11-07T21:00:08.766Z,100234.00
2022-11-07T21:02:37.700Z,100241.00
2022-11-07T21:05:21.972Z,100251.00
2022-11-07T21:07:50.560Z,100243.00
2022-11-07T21:10:19.228Z,100250.00
2022-11-07T21:12:47.791Z,100245.00
2022-11-07T21:15:17.795Z,100240.00
2022-11-07T21:17:46.370Z,100235.00
2022-11-07T21:20:15.028Z,100239.00
2022-11-07T21:22:43.523Z,100234.00
2022-11-07T21:25:12.148Z,100237.00
2022-11-07T21:27:40.625Z,100232.00
2022-11-07T21:30:10.039Z,100233.00
2022-11-07T21:32:39.850Z,100243.00
2022-11-07T21:35:09.649Z,100235.00
2022-11-07T21:37:38.122Z,100242.00
2022-11-07T21:40:08.050Z,100254.00
2022-11-07T21:42:36.519Z,100250.00
2022-11-07T21:45:05.573Z,100255.00
2022-11-07T21:47:34.063Z,100248.00
2022-11-07T21:50:23.803Z,100248.00
2022-11-07T21:52:53.190Z,100244.00
2022-11-07T21:55:21.799Z,100246.00
2022-11-07T21:57:50.286Z,100241.00
2022-11-07T22:00:19.224Z,100239.00
2022-11-07T22:02:47.717Z,100232.00
2022-11-07T22:05:17.808Z,100248.00
2022-11-07T22:07:46.413Z,100240.00
2022-11-07T22:10:17.888Z,100238.00
2022-11-07T22:12:46.633Z,100246.00
2022-11-07T22:15:15.083Z,100244.00
2022-11-07T22:17:43.554Z,100238.00
2022-11-07T22:20:13.383Z,100239.00
2022-11-07T22:22:44.555Z,100233.00
2022-11-07T22:25:17.258Z,100237.00
2022-11-07T22:27:47.651Z,100231.00
2022-11-07T22:30:16.151Z,100230.00
2022-11-07T22:32:44.609Z,100223.00
2022-11-07T22:35:13.190Z,100231.00
2022-11-07T22:37:43.132Z,100226.00
2022-11-07T22:40:15.371Z,100235.00
2022-11-07T22:42:49.804Z,100233.00
2022-11-07T22:45:19.988Z,100222.00
2022-11-07T22:47:48.637Z,100233.00
2022-11-07T22:50:17.437Z,100233.00
2022-11-07T22:53:00.383Z,100233.00
2022-11-07T22:55:30.382Z,100224.00
2022-11-07T22:58:04.753Z,100224.00
2022-11-07T23:00:33.755Z,100234.00
2022-11-07T23:03:02.280Z,100238.00
2022-11-07T23:05:30.861Z,100234.00
2022-11-07T23:08:00.708Z,100234.00
2022-11-07T23:10:29.179Z,100234.00
2022-11-07T23:12:57.644Z,100242.00
2022-11-07T23:15:26.152Z,100237.00
2022-11-07T23:17:54.583Z,100235.00
2022-11-07T23:20:36.964Z,100228.00
2022-11-07T23:23:06.796Z,100228.00
2022-11-07T23:25:37.112Z,100225.00
2022-11-07T23:28:07.455Z,100239.00
2022-11-07T23:30:38.430Z,100221.00
2022-11-07T23:33:07.602Z,100222.00
2022-11-07T23:35:36.063Z,100226.00
2022-11-07T23:38:05.832Z,100223.00
2022-11-07T23:40:35.842Z,100227.00
2022-11-07T23:43:04.441Z,100226.00
2022-11-07T23:45:50.448Z,100217.00
2022-11-07T23:48:36.547Z,100228.00
2022-11-07T23:51:07.072Z,100211.00
2022-11-07T23:53:55.602Z,100216.00
2022-11-07T23:56:25.991Z,100222.00
2022-11-07T23:59:12.846Z,100224.00
